Time;durP1;ratioP1;P1;durP2;ratioP2;P2;SDS_P1;SDS_P2;PMS_P1;PMS_P2;Temp;Humidity;BMP_temperature;BMP_pressure;BME280_temperature;BME280_humidity;BME280_pressure;Samples;Min_cycle;Max_cycle;Signal;HPM_P1;HPM_P2
2022/03/01 00:00:54;;;;;;;0.40;0.40;;;-1.00;99.90;;;;;;5094289;28;20434;-65
2022/03/01 00:03:40;;;;;;;0.40;0.40;;;-1.00;99.90;;;;;;5097027;28;20455;-65
2022/03/01 00:06:27;;;;;;;0.40;0.40;;;-1.00;99.90;;;;;;5097145;28;20442;-64
2022/03/01 00:09:14;;;;;;;0.40;0.40;;;-1.00;99.90;;;;;;5096729;28;20427;-64
2022/03/01 00:12:01;;;;;;;0.40;0.40;;;-1.10;99.90;;;;;;5093618;28;20841;-65
2022/03/01 00:14:48;;;;;;;0.40;0.40;;;-1.10;99.90;;;;;;5092463;28;20935;-66
2022/03/01 00:17:36;;;;;;;0.40;0.40;;;-1.10;99.90;;;;;;5093031;28;20427;-65
2022/03/01 00:20:23;;;;;;;0.40;0.40;;;-1.10;99.90;;;;;;5093205;28;20477;-65
2022/03/01 00:23:10;;;;;;;0.40;0.40;;;-1.10;99.90;;;;;;5093236;28;20426;-65
2022/03/01 00:25:57;;;;;;;0.40;0.40;;;-1.10;99.90;;;;;;5093431;28;20435;-65
2022/03/01 00:28:44;;;;;;;0.40;0.40;;;-1.20;99.90;;;;;;5092578;28;20423;-66
2022/03/01 00:31:31;;;;;;;0.40;0.40;;;-1.10;99.90;;;;;;5092250;28;20423;-64
2022/03/01 00:34:19;;;;;;;0.70;0.70;;;-1.10;99.90;;;;;;5092243;28;20459;-65
2022/03/01 00:37:06;;;;;;;0.40;0.40;;;-1.20;99.90;;;;;;5092243;28;20989;-66
2022/03/01 00:39:53;;;;;;;0.40;0.40;;;-1.20;99.90;;;;;;5093635;28;20423;-65
2022/03/01 00:42:40;;;;;;;0.40;0.40;;;-1.30;99.90;;;;;;5091790;28;20484;-65
2022/03/01 00:45:27;;;;;;;0.40;0.40;;;-1.30;99.90;;;;;;5092220;28;20438;-65
2022/03/01 00:48:14;;;;;;;0.40;0.40;;;-1.30;99.90;;;;;;5092168;28;20438;-64
2022/03/01 00:51:02;;;;;;;0.40;0.40;;;-1.20;99.90;;;;;;5092007;28;20443;-64
2022/03/01 00:53:49;;;;;;;0.40;0.40;;;-1.40;99.90;;;;;;5092476;28;20484;-65
2022/03/01 00:56:36;;;;;;;0.40;0.40;;;-1.30;99.90;;;;;;5093665;28;20415;-66
2022/03/01 00:59:23;;;;;;;0.40;0.40;;;-1.40;99.90;;;;;;5092860;28;20472;-65
2022/03/01 01:02:10;;;;;;;0.40;0.40;;;-1.40;99.90;;;;;;5092218;28;20451;-66
2022/03/01 01:04:57;;;;;;;0.40;0.40;;;-1.40;99.90;;;;;;5091980;28;20509;-65
2022/03/01 01:07:45;;;;;;;0.40;0.40;;;-2.90;99.90;;;;;;5093799;28;20427;-65
2022/03/01 01:10:32;;;;;;;0.40;0.40;;;-1.30;99.90;;;;;;5093918;28;20419;-65
2022/03/01 01:13:20;;;;;;;0.40;0.40;;;-1.50;99.90;;;;;;5092104;28;20516;-65
2022/03/01 01:16:07;;;;;;;0.40;0.40;;;-1.50;99.90;;;;;;5091562;28;20516;-65
2022/03/01 01:18:55;;;;;;;0.40;0.40;;;-1.50;99.90;;;;;;5091471;28;20431;-65
2022/03/01 01:24:48;;;;;;;0.40;0.40;;;-1.60;99.90;;;;;;5091573;28;20443;-66
2022/03/01 01:27:35;;;;;;;0.40;0.40;;;-1.60;99.90;;;;;;5090538;28;20506;-65
2022/03/01 01:30:24;;;;;;;0.40;0.40;;;-1.60;99.90;;;;;;5091158;28;20992;-65
2022/03/01 01:33:10;;;;;;;0.40;0.40;;;-1.60;99.90;;;;;;5091557;28;20423;-64
2022/03/01 01:35:58;;;;;;;0.40;0.40;;;-1.70;99.90;;;;;;5091799;28;20470;-65
2022/03/01 01:38:45;;;;;;;0.40;0.40;;;-1.70;99.90;;;;;;5090978;28;20431;-66
2022/03/01 01:41:33;;;;;;;0.40;0.40;;;-1.70;99.90;;;;;;5091395;28;20416;-64
2022/03/01 01:44:20;;;;;;;0.40;0.40;;;-1.70;99.90;;;;;;5091057;28;20452;-65
2022/03/01 01:47:07;;;;;;;0.40;0.40;;;-1.80;99.90;;;;;;5090849;28;20411;-66
2022/03/01 01:49:54;;;;;;;0.40;0.40;;;-1.80;99.90;;;;;;5090942;28;20449;-65
2022/03/01 01:52:42;;;;;;;4.20;4.00;;;-1.80;99.90;;;;;;5091186;28;20500;-66
2022/03/01 01:55:30;;;;;;;5.27;4.83;;;-1.80;99.90;;;;;;5091422;28;20548;-65
2022/03/01 01:58:18;;;;;;;0.40;0.40;;;-1.90;99.90;;;;;;5091138;28;20427;-65
2022/03/01 02:01:05;;;;;;;0.40;0.40;;;-1.90;99.90;;;;;;5091201;28;20806;-64
2022/03/01 02:03:52;;;;;;;0.40;0.40;;;-1.70;99.90;;;;;;5091167;28;20460;-65
2022/03/01 02:06:49;;;;;;;0.40;0.40;;;-1.90;99.90;;;;;;5091074;28;20419;-65
2022/03/01 02:09:36;;;;;;;0.40;0.40;;;-1.90;99.90;;;;;;5090506;28;20423;-65
2022/03/01 02:12:23;;;;;;;0.40;0.40;;;-1.90;99.90;;;;;;5090144;28;20419;-66
2022/03/01 02:15:12;;;;;;;0.40;0.40;;;-2.00;99.90;;;;;;5091015;28;20474;-65
2022/03/01 02:17:59;;;;;;;0.40;0.40;;;-1.90;99.90;;;;;;5090438;28;20959;-66
2022/03/01 02:20:47;;;;;;;0.40;0.40;;;-1.90;99.90;;;;;;5090985;28;20419;-65
2022/03/01 02:23:34;;;;;;;0.40;0.40;;;-2.00;99.90;;;;;;5090295;28;20442;-65
2022/03/01 02:26:21;;;;;;;0.40;0.40;;;-1.90;99.90;;;;;;5087325;28;20492;-65
2022/03/01 02:29:08;;;;;;;0.40;0.40;;;-1.90;99.90;;;;;;5087380;28;20854;-65
2022/03/01 02:31:57;;;;;;;0.40;0.40;;;-1.90;99.90;;;;;;5091407;28;20477;-65
2022/03/01 02:34:44;;;;;;;0.40;0.40;;;-1.90;99.90;;;;;;5090311;28;21036;-65
2022/03/01 02:37:32;;;;;;;9.20;8.60;;;-2.00;99.90;;;;;;5091436;28;20431;-66
2022/03/01 02:40:19;;;;;;;0.40;0.40;;;-2.00;99.90;;;;;;5094387;28;20436;-65
2022/03/01 02:43:10;;;;;;;0.40;0.40;;;-2.10;99.90;;;;;;5095196;28;20431;-65
2022/03/01 02:45:56;;;;;;;0.40;0.40;;;-2.10;99.90;;;;;;5095473;28;20420;-65
2022/03/01 02:48:43;;;;;;;0.40;0.40;;;-2.00;99.90;;;;;;5095630;28;20989;-65
2022/03/01 02:51:30;;;;;;;0.40;0.40;;;-2.10;99.90;;;;;;5095166;28;20426;-65
2022/03/01 02:54:18;;;;;;;0.40;0.40;;;-2.10;99.90;;;;;;5095904;28;20443;-65
2022/03/01 02:57:06;;;;;;;0.40;0.40;;;-2.10;99.90;;;;;;5095414;28;20467;-65
2022/03/01 02:59:53;;;;;;;0.40;0.40;;;-2.10;99.90;;;;;;5095245;28;20797;-66
2022/03/01 03:02:41;;;;;;;0.50;0.50;;;-2.20;99.90;;;;;;5094904;28;20839;-65
2022/03/01 03:05:28;;;;;;;0.40;0.40;;;-2.20;99.90;;;;;;5095803;28;20439;-65
2022/03/01 03:08:15;;;;;;;0.60;0.60;;;-2.10;99.90;;;;;;5093250;28;20441;-65
2022/03/01 03:11:03;;;;;;;0.40;0.40;;;-2.20;99.90;;;;;;5094938;28;21012;-65
2022/03/01 03:13:50;;;;;;;0.50;0.50;;;;;;;;;;5116034;22;20451;-69
2022/03/01 03:16:37;;;;;;;0.50;0.50;;;-2.30;99.90;;;;;;5035301;28;20528;-69
2022/03/01 03:19:25;;;;;;;0.50;0.50;;;-2.30;99.90;;;;;;5035370;28;20508;-69
2022/03/01 03:22:12;;;;;;;0.50;0.50;;;-2.30;99.90;;;;;;5034169;28;21007;-69
2022/03/01 03:24:59;;;;;;;0.50;0.50;;;-2.40;99.90;;;;;;5046020;28;20471;-69
2022/03/01 03:27:47;;;;;;;0.50;0.50;;;-2.30;99.90;;;;;;5055065;28;20459;-70
2022/03/01 03:30:34;;;;;;;0.40;0.40;;;-2.40;99.90;;;;;;5055027;28;20522;-68
2022/03/01 03:33:21;;;;;;;2.30;1.90;;;-2.40;99.90;;;;;;5054537;28;20511;-69
2022/03/01 03:36:08;;;;;;;0.50;0.50;;;-2.30;99.90;;;;;;5054899;28;20476;-68
2022/03/01 03:38:55;;;;;;;0.50;0.50;;;-2.40;99.90;;;;;;5054542;28;20830;-69
2022/03/01 03:41:42;;;;;;;0.50;0.50;;;-2.40;99.90;;;;;;5054598;28;20452;-68
2022/03/01 03:44:30;;;;;;;0.50;0.50;;;-2.40;99.90;;;;;;5053631;28;20471;-68
2022/03/01 03:47:17;;;;;;;0.50;0.50;;;-2.40;99.90;;;;;;5054345;28;20461;-69
2022/03/01 03:50:05;;;;;;;0.50;0.50;;;-2.40;99.90;;;;;;5053527;28;20783;-69
2022/03/01 03:52:52;;;;;;;0.50;0.50;;;-2.40;99.90;;;;;;5054093;28;20429;-69
2022/03/01 03:55:39;;;;;;;0.50;0.50;;;-2.40;99.90;;;;;;5054910;28;20833;-67
2022/03/01 03:58:25;;;;;;;0.50;0.50;;;-2.40;99.90;;;;;;5055003;28;20941;-68
2022/03/01 04:01:14;;;;;;;0.50;0.50;;;-2.40;99.90;;;;;;5054457;28;20478;-68
2022/03/01 04:04:01;;;;;;;0.40;0.40;;;-2.50;99.90;;;;;;5054393;28;20426;-69
2022/03/01 04:06:48;;;;;;;3.13;3.03;;;-2.50;99.90;;;;;;5054351;28;20926;-69
2022/03/01 04:09:35;;;;;;;0.40;0.40;;;-2.50;99.90;;;;;;5054513;28;20417;-68
2022/03/01 04:12:22;;;;;;;0.50;0.50;;;-2.50;99.90;;;;;;5054340;28;20425;-69
2022/03/01 04:15:10;;;;;;;0.40;0.40;;;-2.50;99.90;;;;;;5054450;28;20507;-68
2022/03/01 04:17:58;;;;;;;0.40;0.40;;;-2.50;99.90;;;;;;5054432;28;20471;-69
2022/03/01 04:20:45;;;;;;;0.50;0.50;;;-2.50;99.90;;;;;;5052819;28;20441;-67
2022/03/01 04:23:33;;;;;;;0.50;0.50;;;-2.60;99.90;;;;;;5053960;28;20447;-68
2022/03/01 04:26:19;;;;;;;0.50;0.50;;;-2.60;99.90;;;;;;5054054;28;20420;-67
2022/03/01 04:29:06;;;;;;;0.50;0.50;;;-2.60;99.90;;;;;;5054763;28;20421;-68
2022/03/01 04:31:53;;;;;;;0.50;0.50;;;-2.60;99.90;;;;;;5053482;28;20433;-68
2022/03/01 04:34:41;;;;;;;0.50;0.50;;;-2.70;99.90;;;;;;5053562;28;20827;-69
2022/03/01 04:37:28;;;;;;;0.90;0.90;;;-2.70;99.90;;;;;;5053893;28;20487;-68
2022/03/01 04:40:18;;;;;;;0.50;0.50;;;-2.70;99.90;;;;;;5052297;28;20853;-68
2022/03/01 04:43:05;;;;;;;0.70;0.70;;;-2.70;99.90;;;;;;5047841;28;20434;-69
2022/03/01 04:45:53;;;;;;;0.50;0.50;;;-2.70;99.90;;;;;;5046783;28;20456;-68
2022/03/01 04:48:40;;;;;;;0.70;0.70;;;-2.70;99.90;;;;;;5053324;28;20434;-67
2022/03/01 04:51:28;;;;;;;0.50;0.50;;;-2.70;99.90;;;;;;5052537;28;20463;-68
2022/03/01 04:54:15;;;;;;;0.53;0.53;;;-2.70;99.90;;;;;;5053538;28;20445;-68
2022/03/01 04:57:02;;;;;;;0.50;0.50;;;-2.70;99.90;;;;;;5053075;28;20497;-69
2022/03/01 04:59:49;;;;;;;0.50;0.50;;;-2.70;99.90;;;;;;5053042;28;20495;-68
2022/03/01 05:02:36;;;;;;;0.50;0.50;;;-2.70;99.90;;;;;;5052846;28;20784;-68
2022/03/01 05:05:23;;;;;;;0.40;0.40;;;-2.70;99.90;;;;;;5053412;28;20445;-68
2022/03/01 05:08:11;;;;;;;0.50;0.50;;;-2.50;99.90;;;;;;5052010;28;20963;-69
2022/03/01 05:10:58;;;;;;;0.40;0.40;;;-2.70;99.90;;;;;;5052967;28;20433;-68
2022/03/01 05:13:45;;;;;;;0.50;0.50;;;-2.80;99.90;;;;;;5053075;28;20953;-68
2022/03/01 05:16:32;;;;;;;0.50;0.50;;;-2.70;99.90;;;;;;5053161;28;20468;-69
2022/03/01 05:19:19;;;;;;;0.97;0.97;;;-2.80;99.90;;;;;;5053530;28;20468;-69
2022/03/01 05:22:06;;;;;;;0.40;0.40;;;-2.80;99.90;;;;;;5052675;28;20421;-69
2022/03/01 05:24:55;;;;;;;0.50;0.50;;;-2.80;99.90;;;;;;5053552;28;20445;-68
2022/03/01 05:27:44;;;;;;;0.50;0.50;;;-2.80;99.90;;;;;;5052480;28;20506;-69
2022/03/01 05:30:31;;;;;;;0.50;0.50;;;-2.80;99.90;;;;;;5052690;28;20433;-70
2022/03/01 05:33:18;;;;;;;2.20;0.73;;;-2.80;99.90;;;;;;5052848;28;20440;-69
2022/03/01 05:36:05;;;;;;;0.40;0.40;;;-2.80;99.90;;;;;;5053032;28;20999;-69
2022/03/01 05:38:52;;;;;;;0.50;0.50;;;-2.80;99.90;;;;;;5053058;28;20447;-68
2022/03/01 05:41:40;;;;;;;0.50;0.50;;;-2.90;99.90;;;;;;5053571;28;20453;-69
2022/03/01 05:44:27;;;;;;;0.40;0.40;;;-2.90;99.90;;;;;;5053162;28;20820;-69
2022/03/01 05:47:14;;;;;;;0.50;0.50;;;-2.90;99.90;;;;;;5052550;28;20429;-66
2022/03/01 05:50:03;;;;;;;1.77;1.77;;;-2.90;99.90;;;;;;5052931;28;20425;-69
2022/03/01 05:52:50;;;;;;;0.50;0.50;;;-2.90;99.90;;;;;;5053492;28;20923;-68
2022/03/01 05:55:37;;;;;;;0.43;0.43;;;-2.90;99.90;;;;;;5053462;28;20460;-68
2022/03/01 05:58:26;;;;;;;0.40;0.40;;;-2.90;99.90;;;;;;5053768;28;20428;-68
2022/03/01 06:01:13;;;;;;;0.50;0.50;;;-2.90;99.90;;;;;;5052876;28;20443;-68
2022/03/01 06:04:00;;;;;;;0.40;0.40;;;-2.80;99.90;;;;;;5052873;28;20421;-69
2022/03/01 06:06:47;;;;;;;0.70;0.70;;;-2.80;99.90;;;;;;5052317;28;20417;-69
2022/03/01 06:09:34;;;;;;;0.50;0.50;;;-2.80;99.90;;;;;;5053546;28;20418;-69
2022/03/01 06:12:21;;;;;;;0.50;0.50;;;-2.80;99.90;;;;;;5053128;28;20421;-67
2022/03/01 06:15:10;;;;;;;0.40;0.40;;;-2.80;99.90;;;;;;5053253;28;20486;-68
2022/03/01 06:17:57;;;;;;;0.50;0.50;;;-2.70;99.90;;;;;;5052992;28;20506;-68
2022/03/01 06:20:44;;;;;;;0.40;0.40;;;-2.70;99.90;;;;;;5053123;28;20440;-69
2022/03/01 06:23:32;;;;;;;0.40;0.40;;;-2.60;99.90;;;;;;5052307;28;20432;-68
2022/03/01 06:26:19;;;;;;;0.40;0.40;;;-2.60;99.90;;;;;;5053666;28;20427;-69
2022/03/01 06:29:06;;;;;;;0.50;0.50;;;-2.50;99.90;;;;;;5053257;28;20429;-69
2022/03/01 06:31:55;;;;;;;0.50;0.50;;;-2.50;99.90;;;;;;5053227;28;20867;-68
2022/03/01 06:34:42;;;;;;;0.90;0.90;;;-2.50;99.90;;;;;;5052971;28;20823;-68
2022/03/01 06:37:30;;;;;;;0.50;0.50;;;-2.40;99.90;;;;;;5052743;28;20471;-69
2022/03/01 06:40:16;;;;;;;0.40;0.40;;;-2.40;99.90;;;;;;5052899;28;20520;-70
2022/03/01 06:43:04;;;;;;;0.50;0.50;;;-2.40;99.90;;;;;;5041406;28;20465;-69
2022/03/01 06:45:51;;;;;;;0.83;0.83;;;-2.40;99.90;;;;;;5052661;28;20449;-69
2022/03/01 06:48:39;;;;;;;0.80;0.80;;;-2.30;99.90;;;;;;5052493;28;20432;-69
2022/03/01 06:51:26;;;;;;;0.50;0.50;;;-2.30;99.90;;;;;;5051796;28;20425;-68
2022/03/01 06:54:13;;;;;;;0.83;0.83;;;-2.20;99.90;;;;;;5052056;28;20475;-69
2022/03/01 06:57:00;;;;;;;0.50;0.50;;;-2.20;99.90;;;;;;5051835;28;20464;-69
2022/03/01 06:59:47;;;;;;;3.17;2.97;;;-2.10;99.90;;;;;;5052298;28;20511;-68
2022/03/01 07:02:38;;;;;;;0.40;0.40;;;-2.00;99.90;;;;;;5045766;28;20452;-68
2022/03/01 07:05:26;;;;;;;7.00;1.63;;;-2.00;99.90;;;;;;5044486;28;20477;-69
2022/03/01 07:08:14;;;;;;;1.13;1.13;;;-1.90;99.90;;;;;;5052172;28;20810;-70
2022/03/01 07:11:01;;;;;;;0.40;0.40;;;-1.80;99.90;;;;;;5066729;28;20444;-69
2022/03/01 07:13:48;;;;;;;0.50;0.50;;;-1.80;99.90;;;;;;5071218;28;20425;-70
2022/03/01 07:16:35;;;;;;;0.50;0.50;;;-1.70;99.90;;;;;;5070988;28;20461;-70
2022/03/01 07:19:22;;;;;;;0.50;0.50;;;-1.50;99.90;;;;;;5071521;28;20413;-71
2022/03/01 07:22:10;;;;;;;0.50;0.50;;;-1.60;99.90;;;;;;5070451;28;20532;-68
2022/03/01 07:24:58;;;;;;;0.40;0.40;;;-1.50;99.90;;;;;;5070163;28;20459;-68
2022/03/01 07:27:46;;;;;;;3.17;2.97;;;-1.40;99.90;;;;;;5074813;28;20496;-68
2022/03/01 07:30:34;;;;;;;0.70;0.70;;;-1.30;99.90;;;;;;5074800;28;20421;-68
2022/03/01 07:33:21;;;;;;;0.50;0.50;;;-1.30;99.90;;;;;;5073265;28;20860;-69
2022/03/01 07:36:08;;;;;;;0.50;0.50;;;-1.10;99.90;;;;;;5071629;28;20475;-68
2022/03/01 07:38:56;;;;;;;0.50;0.50;;;-1.10;99.90;;;;;;5071888;28;20425;-70
2022/03/01 07:41:43;;;;;;;0.87;0.87;;;-1.00;99.90;;;;;;5061641;28;20539;-69
2022/03/01 07:44:30;;;;;;;0.50;0.50;;;-1.00;99.90;;;;;;5045878;28;20536;-69
2022/03/01 07:47:17;;;;;;;5.80;5.40;;;-0.80;99.90;;;;;;5055058;28;20430;-69
2022/03/01 07:50:07;;;;;;;0.47;0.47;;;-0.80;99.90;;;;;;5062277;28;20421;-72
2022/03/01 07:52:54;;;;;;;0.70;0.70;;;-0.70;99.90;;;;;;5051661;28;20453;-69
2022/03/01 07:55:42;;;;;;;0.60;0.60;;;-0.70;99.90;;;;;;5051381;28;20485;-71
2022/03/01 07:58:29;;;;;;;0.50;0.50;;;-0.60;99.90;;;;;;5056438;28;20480;-68
2022/03/01 08:01:17;;;;;;;0.50;0.50;;;-0.50;99.90;;;;;;5068304;28;20421;-68
2022/03/01 08:04:04;;;;;;;0.43;0.43;;;-0.50;99.90;;;;;;5058236;28;20437;-69
2022/03/01 08:06:51;;;;;;;0.60;0.60;;;-0.40;99.90;;;;;;5046519;28;20456;-67
2022/03/01 08:09:38;;;;;;;0.50;0.50;;;-0.30;99.90;;;;;;5053920;28;20428;-68
2022/03/01 08:12:27;;;;;;;0.40;0.40;;;-0.10;99.90;;;;;;5052770;28;20425;-69
2022/03/01 08:15:14;;;;;;;0.50;0.50;;;-0.10;99.90;;;;;;5054779;28;20980;-69
2022/03/01 08:18:01;;;;;;;0.50;0.50;;;0.00;99.90;;;;;;5056104;28;20987;-69
2022/03/01 08:20:49;;;;;;;0.40;0.40;;;0.10;99.90;;;;;;5055140;28;21087;-69
2022/03/01 08:23:36;;;;;;;0.50;0.50;;;0.20;99.90;;;;;;5045619;28;20976;-69
2022/03/01 08:26:23;;;;;;;0.50;0.50;;;0.30;99.90;;;;;;5053660;28;20428;-69
2022/03/01 08:29:12;;;;;;;0.50;0.50;;;0.50;99.90;;;;;;5055041;28;20448;-69
2022/03/01 08:31:59;;;;;;;0.50;0.50;;;0.60;99.90;;;;;;5053002;28;20417;-67
2022/03/01 08:34:46;;;;;;;9.30;6.90;;;0.70;99.90;;;;;;5055215;28;20515;-69
2022/03/01 08:37:34;;;;;;;1.60;1.53;;;0.80;99.90;;;;;;5052875;28;20477;-69
2022/03/01 08:40:23;;;;;;;0.50;0.50;;;0.90;99.90;;;;;;5053789;28;20425;-68
2022/03/01 08:43:14;;;;;;;0.50;0.50;;;1.00;99.90;;;;;;5053276;28;20433;-67
2022/03/01 08:46:03;;;;;;;0.50;0.50;;;1.10;99.90;;;;;;5034697;28;20445;-69
2022/03/01 08:48:53;;;;;;;0.40;0.40;;;1.30;99.90;;;;;;5040046;28;20445;-69
2022/03/01 08:51:40;;;;;;;0.50;0.50;;;1.40;99.90;;;;;;5054501;28;20463;-69
2022/03/01 08:54:26;;;;;;;0.50;0.50;;;1.50;99.90;;;;;;5051746;28;20856;-69
2022/03/01 08:57:14;;;;;;;0.47;0.47;;;1.60;99.90;;;;;;5053274;28;20473;-69
2022/03/01 09:00:01;;;;;;;0.40;0.40;;;1.70;99.90;;;;;;5051697;28;20451;-68
2022/03/01 09:02:49;;;;;;;0.40;0.40;;;1.80;99.90;;;;;;5047509;28;20422;-69
2022/03/01 09:05:36;;;;;;;0.40;0.40;;;1.90;99.90;;;;;;5053780;28;20452;-69
2022/03/01 09:08:23;;;;;;;0.50;0.50;;;2.00;99.90;;;;;;5053531;28;20427;-69
2022/03/01 09:11:11;;;;;;;0.50;0.50;;;2.10;99.90;;;;;;5055116;28;20413;-70
2022/03/01 09:13:58;;;;;;;0.50;0.50;;;2.30;99.90;;;;;;5054848;28;20423;-68
2022/03/01 09:16:45;;;;;;;0.50;0.50;;;2.30;99.90;;;;;;5054864;28;20421;-69
2022/03/01 09:19:33;;;;;;;0.50;0.50;;;2.40;99.90;;;;;;5055122;28;20421;-69
2022/03/01 09:22:20;;;;;;;0.50;0.50;;;2.50;99.90;;;;;;5053163;28;20479;-69
2022/03/01 09:25:08;;;;;;;0.50;0.50;;;2.60;99.90;;;;;;5053222;28;20494;-68
2022/03/01 09:27:55;;;;;;;0.50;0.50;;;2.70;99.90;;;;;;5054411;28;20440;-70
2022/03/01 09:30:42;;;;;;;0.50;0.50;;;2.80;99.90;;;;;;5054146;28;20432;-68
2022/03/01 09:33:29;;;;;;;0.67;0.67;;;2.90;99.90;;;;;;5053595;28;20471;-68
2022/03/01 09:36:17;;;;;;;0.50;0.50;;;3.10;99.90;;;;;;5053012;28;20470;-68
2022/03/01 09:39:04;;;;;;;0.50;0.50;;;3.10;99.90;;;;;;5052405;28;20538;-67
2022/03/01 09:41:53;;;;;;;0.50;0.50;;;3.30;99.90;;;;;;5051892;28;20476;-68
2022/03/01 09:44:41;;;;;;;0.50;0.50;;;3.50;99.90;;;;;;5052770;28;20845;-68
2022/03/01 09:47:28;;;;;;;0.50;0.50;;;3.30;99.90;;;;;;5051720;28;20436;-67
2022/03/01 09:50:16;;;;;;;0.63;0.63;;;3.40;99.90;;;;;;5052817;28;20450;-68
2022/03/01 09:53:05;;;;;;;0.40;0.40;;;3.50;99.90;;;;;;5052125;28;20435;-69
2022/03/01 09:55:52;;;;;;;0.83;0.83;;;3.60;99.90;;;;;;5052167;28;20448;-69
2022/03/01 09:58:39;;;;;;;0.60;0.60;;;3.70;99.90;;;;;;5050846;28;20983;-69
2022/03/01 10:01:27;;;;;;;0.50;0.50;;;3.80;99.90;;;;;;5054851;28;20424;-67
2022/03/01 10:04:14;;;;;;;0.50;0.50;;;3.80;99.90;;;;;;5053605;28;20954;-69
2022/03/01 10:07:03;;;;;;;0.50;0.50;;;3.90;99.90;;;;;;5053450;28;20956;-68
2022/03/01 10:09:52;;;;;;;0.60;0.60;;;4.00;99.90;;;;;;5053626;28;20474;-69
2022/03/01 10:12:39;;;;;;;2.10;2.00;;;4.00;99.90;;;;;;5051062;28;20432;-67
2022/03/01 10:15:28;;;;;;;0.50;0.50;;;4.10;99.90;;;;;;5052288;28;20464;-69
2022/03/01 10:18:16;;;;;;;9.90;9.17;;;4.20;99.90;;;;;;5052801;28;20464;-69
2022/03/01 10:21:05;;;;;;;0.50;0.50;;;4.20;99.90;;;;;;5048269;28;20420;-68
2022/03/01 10:23:54;;;;;;;0.70;0.70;;;4.40;99.90;;;;;;5045672;28;20417;-68
2022/03/01 10:26:44;;;;;;;0.80;0.80;;;4.30;99.90;;;;;;5049969;28;20428;-68
2022/03/01 10:29:32;;;;;;;1.03;0.77;;;4.40;98.80;;;;;;5051848;28;20920;-68
2022/03/01 10:32:20;;;;;;;0.40;0.40;;;4.50;98.20;;;;;;5051729;28;20432;-68
2022/03/01 10:35:09;;;;;;;0.47;0.47;;;4.40;98.60;;;;;;5052048;28;20452;-68
2022/03/01 10:37:56;;;;;;;2.20;2.10;;;4.50;97.80;;;;;;5053163;28;20511;-68
2022/03/01 10:40:43;;;;;;;0.50;0.50;;;4.50;96.70;;;;;;5054164;28;20456;-69
2022/03/01 10:43:31;;;;;;;0.40;0.40;;;4.60;96.50;;;;;;5053265;28;20433;-67
2022/03/01 10:46:18;;;;;;;0.50;0.50;;;4.60;96.20;;;;;;5050886;28;20456;-67
2022/03/01 10:49:08;;;;;;;0.60;0.60;;;4.70;95.40;;;;;;5051144;28;20436;-68
2022/03/01 10:51:57;;;;;;;0.60;0.60;;;4.70;95.10;;;;;;5053435;28;20435;-68
2022/03/01 10:54:45;;;;;;;0.40;0.40;;;4.80;95.00;;;;;;5052586;28;21156;-68
2022/03/01 10:57:32;;;;;;;0.60;0.60;;;4.90;95.40;;;;;;5053093;28;20464;-67
2022/03/01 11:00:21;;;;;;;0.40;0.40;;;4.90;95.30;;;;;;5051889;28;20501;-68
2022/03/01 11:03:09;;;;;;;0.40;0.40;;;5.00;95.00;;;;;;5051185;28;20456;-68
2022/03/01 11:05:57;;;;;;;0.40;0.40;;;5.00;95.00;;;;;;5043669;28;20444;-65
2022/03/01 11:08:46;;;;;;;0.50;0.50;;;5.10;94.70;;;;;;5055210;28;20412;-69
2022/03/01 11:11:33;;;;;;;0.50;0.50;;;5.20;94.30;;;;;;5055013;28;20799;-69
2022/03/01 11:14:25;;;;;;;0.50;0.50;;;5.20;94.10;;;;;;5055047;28;20976;-69
2022/03/01 11:17:22;;;;;;;0.60;0.60;;;5.30;93.70;;;;;;5055011;28;21018;-68
2022/03/01 11:20:14;;;;;;;1.07;0.60;;;5.30;93.10;;;;;;5054714;28;20440;-69
2022/03/01 11:23:05;;;;;;;0.70;0.70;;;5.40;92.60;;;;;;5050710;28;20583;-69
2022/03/01 11:25:53;;;;;;;0.70;0.70;;;5.40;92.50;;;;;;5036087;28;20487;-68
2022/03/01 11:28:45;;;;;;;8.97;3.73;;;5.50;91.90;;;;;;5036078;28;20475;-68
2022/03/01 11:31:32;;;;;;;0.50;0.50;;;5.60;91.90;;;;;;5054198;28;20823;-68
2022/03/01 11:34:23;;;;;;;0.50;0.50;;;5.50;91.60;;;;;;5055010;28;20447;-68
2022/03/01 11:37:17;;;;;;;0.40;0.40;;;5.70;91.90;;;;;;5055188;28;20424;-67
2022/03/01 11:40:06;;;;;;;0.40;0.40;;;5.60;91.00;;;;;;5055492;28;20433;-68
2022/03/01 11:42:53;;;;;;;0.40;0.40;;;5.60;90.50;;;;;;5049544;28;20506;-69
2022/03/01 11:45:44;;;;;;;2.10;1.33;;;5.70;90.70;;;;;;5054444;28;20445;-68
2022/03/01 11:48:31;;;;;;;0.40;0.40;;;5.60;89.40;;;;;;5055120;28;20478;-68
2022/03/01 11:51:20;;;;;;;0.40;0.40;;;5.70;87.00;;;;;;5055094;28;20534;-68
2022/03/01 11:54:10;;;;;;;0.40;0.40;;;5.90;85.80;;;;;;5053411;28;20878;-67
2022/03/01 11:56:59;;;;;;;0.40;0.40;;;5.90;84.60;;;;;;5054211;28;20424;-68
2022/03/01 11:59:49;;;;;;;0.70;0.70;;;5.90;84.50;;;;;;5046033;28;20495;-68
2022/03/01 12:02:36;;;;;;;0.40;0.40;;;5.90;83.70;;;;;;5054012;28;20430;-68
2022/03/01 12:05:24;;;;;;;0.63;0.63;;;5.90;83.30;;;;;;5054000;28;20441;-68
2022/03/01 12:08:14;;;;;;;0.40;0.40;;;6.00;83.30;;;;;;5055028;28;20431;-69
2022/03/01 12:11:08;;;;;;;0.40;0.40;;;5.90;82.20;;;;;;5055172;28;20903;-69
2022/03/01 12:14:03;;;;;;;0.77;0.77;;;6.00;82.70;;;;;;5053908;28;20428;-70
2022/03/01 12:16:50;;;;;;;0.40;0.40;;;6.00;82.90;;;;;;5054216;28;20421;-68
2022/03/01 12:19:36;;;;;;;0.67;0.67;;;6.00;82.90;;;;;;5054415;28;20464;-67
2022/03/01 12:22:33;;;;;;;0.40;0.40;;;6.10;82.10;;;;;;5049484;28;20420;-69
2022/03/01 12:25:21;;;;;;;0.87;0.70;;;6.10;82.90;;;;;;5050431;28;21041;-70
2022/03/01 12:28:11;;;;;;;0.40;0.40;;;6.20;82.30;;;;;;5048879;28;20471;-68
2022/03/01 12:31:06;;;;;;;0.50;0.50;;;6.30;82.60;;;;;;5052124;28;20436;-68
2022/03/01 12:33:55;;;;;;;0.40;0.40;;;6.30;80.70;;;;;;5052276;28;20429;-68
2022/03/01 12:36:45;;;;;;;0.40;0.40;;;6.30;81.30;;;;;;5045047;28;20417;-66
2022/03/01 12:39:32;;;;;;;0.50;0.50;;;6.40;82.20;;;;;;5044987;28;20472;-70
2022/03/01 12:42:25;;;;;;;0.50;0.50;;;6.40;81.60;;;;;;5050568;28;20957;-68
2022/03/01 12:45:12;;;;;;;7.60;2.10;;;6.50;81.50;;;;;;5052755;28;20462;-68
2022/03/01 12:47:59;;;;;;;0.50;0.50;;;6.50;80.70;;;;;;5053145;28;20448;-69
2022/03/01 12:50:48;;;;;;;0.40;0.40;;;6.60;79.30;;;;;;5052332;28;20452;-69
2022/03/01 12:53:35;;;;;;;0.43;0.43;;;6.70;79.40;;;;;;5049573;28;20518;-68
2022/03/01 12:56:24;;;;;;;0.50;0.50;;;6.60;78.90;;;;;;5048954;28;21018;-67
2022/03/01 12:59:15;;;;;;;0.40;0.40;;;6.80;78.80;;;;;;5051402;28;20479;-68
2022/03/01 13:02:07;;;;;;;0.40;0.40;;;6.60;79.30;;;;;;5033767;28;20430;-67
2022/03/01 13:04:56;;;;;;;0.50;0.50;;;6.60;79.60;;;;;;5038882;28;20448;-68
2022/03/01 13:07:43;;;;;;;0.50;0.50;;;6.60;79.40;;;;;;5050597;28;20429;-68
2022/03/01 13:10:34;;;;;;;0.50;0.50;;;6.70;78.40;;;;;;5053839;28;20425;-67
2022/03/01 13:13:21;;;;;;;0.40;0.40;;;6.80;79.20;;;;;;5060633;28;20814;-68
2022/03/01 13:16:10;;;;;;;0.40;0.40;;;7.10;77.50;;;;;;5058162;28;20955;-69
2022/03/01 13:19:00;;;;;;;0.50;0.50;;;7.10;77.50;;;;;;5058661;28;20462;-68
2022/03/01 13:21:49;;;;;;;0.50;0.50;;;7.50;77.50;;;;;;5056483;28;20810;-69
2022/03/01 13:24:38;;;;;;;1.80;0.60;;;7.50;75.10;;;;;;5039808;28;20844;-68
2022/03/01 13:27:25;;;;;;;0.50;0.50;;;7.80;75.30;;;;;;5043642;28;20457;-67
2022/03/01 13:30:12;;;;;;;0.40;0.40;;;8.30;74.00;;;;;;5044588;28;21003;-69
2022/03/01 13:33:09;;;;;;;1.23;1.13;;;8.40;73.10;;;;;;5045038;28;20503;-68
2022/03/01 13:35:57;;;;;;;0.40;0.40;;;8.90;72.10;;;;;;5044947;28;20853;-69
2022/03/01 13:38:56;;;;;;;0.50;0.50;;;9.30;73.20;;;;;;5051239;28;20996;-68
2022/03/01 13:41:45;;;;;;;0.67;0.67;;;9.80;71.10;;;;;;5062529;28;20448;-68
2022/03/01 13:44:34;;;;;;;0.50;0.50;;;10.40;67.70;;;;;;5059180;28;20467;-69
2022/03/01 13:47:23;;;;;;;0.40;0.40;;;10.80;67.80;;;;;;5050377;28;20431;-68
2022/03/01 13:50:14;;;;;;;0.40;0.40;;;11.50;66.10;;;;;;5051129;28;20432;-68
2022/03/01 13:53:10;;;;;;;0.50;0.50;;;12.10;64.80;;;;;;5050076;28;20452;-68
2022/03/01 13:55:57;;;;;;;0.40;0.40;;;13.20;63.00;;;;;;5054326;28;21096;-69
2022/03/01 13:58:44;;;;;;;0.50;0.50;;;14.70;60.40;;;;;;5049616;28;20472;-72
2022/03/01 14:01:31;;;;;;;2.10;2.00;;;15.60;56.50;;;;;;5050414;28;21007;-71
2022/03/01 14:04:22;;;;;;;0.40;0.40;;;16.00;53.20;;;;;;5031641;28;20446;-68
2022/03/01 14:07:10;;;;;;;0.40;0.40;;;16.10;52.00;;;;;;5050004;28;20443;-70
2022/03/01 14:09:58;;;;;;;2.50;2.30;;;16.10;51.30;;;;;;5050922;28;20416;-70
2022/03/01 14:12:45;;;;;;;0.40;0.40;;;16.60;49.00;;;;;;5050585;28;20420;-69
2022/03/01 14:15:33;;;;;;;0.40;0.40;;;17.10;48.00;;;;;;5049088;28;20260;-71
2022/03/01 14:18:21;;;;;;;0.40;0.40;;;17.60;47.50;;;;;;5051265;28;20235;-69
2022/03/01 14:21:11;;;;;;;0.52;0.52;;;17.90;46.40;;;;;;5047080;28;20299;-70
2022/03/01 14:24:00;;;;;;;0.60;0.60;;;18.00;45.50;;;;;;5049302;28;20194;-70
2022/03/01 14:26:47;;;;;;;0.55;0.55;;;17.40;45.70;;;;;;5030557;28;20202;-69
2022/03/01 14:29:34;;;;;;;0.50;0.50;;;17.10;46.30;;;;;;5029967;28;20198;-71
2022/03/01 14:32:21;;;;;;;0.60;0.60;;;17.50;44.80;;;;;;5030607;28;20205;-69
2022/03/01 14:35:09;;;;;;;0.40;0.40;;;18.00;43.90;;;;;;5032096;28;20256;-69
2022/03/01 14:37:56;;;;;;;0.40;0.40;;;18.40;42.80;;;;;;5045260;28;20201;-71
2022/03/01 14:40:44;;;;;;;0.40;0.40;;;18.70;42.30;;;;;;5055392;28;20237;-69